createdAt,value
2018-12-06T00:00:17.807Z,74.87
2018-12-06T00:02:43.983Z,74.65
2018-12-06T00:05:10.190Z,74.77
2018-12-06T00:07:36.307Z,74.80
2018-12-06T00:10:02.692Z,74.82
2018-12-06T00:12:28.762Z,74.74
2018-12-06T00:15:06.908Z,74.56
2018-12-06T00:17:33.032Z,74.68
2018-12-06T00:19:59.232Z,74.66
2018-12-06T00:22:25.348Z,74.58
2018-12-06T00:24:51.533Z,74.74
2018-12-06T00:27:17.793Z,74.52
2018-12-06T00:29:47.934Z,74.57
2018-12-06T00:32:14.037Z,74.50
2018-12-06T00:34:40.134Z,74.41
2018-12-06T00:37:06.354Z,74.34
2018-12-06T00:39:32.470Z,74.35
2018-12-06T00:41:58.627Z,74.45
2018-12-06T00:44:25.012Z,74.52
2018-12-06T00:46:51.143Z,74.41
2018-12-06T00:49:17.268Z,74.32
2018-12-06T00:51:43.328Z,74.29
2018-12-06T00:54:09.433Z,74.36
2018-12-06T00:56:35.505Z,74.37
2018-12-06T00:59:16.493Z,74.25
2018-12-06T01:01:42.630Z,74.30
2018-12-06T01:04:08.744Z,74.30
2018-12-06T01:06:34.830Z,74.45
2018-12-06T01:09:01.063Z,74.47
2018-12-06T01:11:27.449Z,74.34
2018-12-06T01:13:53.529Z,74.12
2018-12-06T01:16:19.645Z,74.07
2018-12-06T01:18:45.740Z,74.05
2018-12-06T01:21:11.862Z,73.96
2018-12-06T01:23:37.997Z,74.06
2018-12-06T01:26:04.067Z,73.92
2018-12-06T01:28:30.199Z,74.06
2018-12-06T01:30:56.241Z,74.13
2018-12-06T01:33:22.298Z,74.11
2018-12-06T01:35:48.463Z,74.14
2018-12-06T01:38:14.607Z,74.04
2018-12-06T01:40:40.769Z,74.05
2018-12-06T01:43:06.902Z,73.94
2018-12-06T01:45:33.107Z,73.98
2018-12-06T01:47:59.214Z,73.87
2018-12-06T01:50:25.365Z,74.10
2018-12-06T01:52:51.488Z,73.89
2018-12-06T01:55:17.662Z,73.77
2018-12-06T01:57:43.803Z,73.89
2018-12-06T02:00:10.173Z,73.99
2018-12-06T02:02:36.452Z,74.03
2018-12-06T02:05:03.000Z,73.85
2018-12-06T02:07:29.277Z,73.71
2018-12-06T02:09:55.414Z,73.88
2018-12-06T02:12:21.529Z,73.74
2018-12-06T02:14:47.836Z,73.70
2018-12-06T02:17:13.925Z,73.89
2018-12-06T02:19:40.026Z,73.61
2018-12-06T02:22:06.174Z,73.67
2018-12-06T02:24:35.175Z,73.67
2018-12-06T02:27:01.289Z,73.68
2018-12-06T02:29:29.526Z,73.57
2018-12-06T02:31:55.619Z,73.76
2018-12-06T02:34:21.703Z,73.59
2018-12-06T02:36:47.799Z,73.64
2018-12-06T02:39:13.854Z,73.51
2018-12-06T02:41:39.919Z,73.58
2018-12-06T02:44:06.124Z,73.52
2018-12-06T02:46:32.358Z,73.57
2018-12-06T02:48:58.433Z,73.60
2018-12-06T02:51:24.604Z,73.55
2018-12-06T02:53:50.725Z,73.58
2018-12-06T02:56:16.811Z,73.59
2018-12-06T02:58:42.982Z,73.45
2018-12-06T03:01:09.075Z,73.49
2018-12-06T03:03:35.196Z,73.71
2018-12-06T03:06:01.292Z,73.65
2018-12-06T03:08:27.548Z,73.37
2018-12-06T03:10:53.739Z,73.61
2018-12-06T03:13:19.902Z,73.35
2018-12-06T03:15:46.023Z,73.47
2018-12-06T03:18:12.113Z,73.45
2018-12-06T03:20:39.398Z,73.59
2018-12-06T03:23:05.442Z,73.48
2018-12-06T03:25:31.762Z,73.48
2018-12-06T03:27:57.805Z,73.45
2018-12-06T03:30:23.893Z,73.38
2018-12-06T03:32:50.039Z,73.27
2018-12-06T03:35:16.113Z,73.38
2018-12-06T03:37:42.332Z,73.37
2018-12-06T03:40:08.589Z,73.26
2018-12-06T03:42:34.687Z,73.54
2018-12-06T03:45:00.757Z,73.49
2018-12-06T03:47:27.066Z,73.38
2018-12-06T03:49:53.183Z,73.49
2018-12-06T03:52:22.032Z,73.21
2018-12-06T03:54:48.130Z,73.24
2018-12-06T03:57:14.215Z,73.41
2018-12-06T03:59:40.274Z,73.12
2018-12-06T04:02:06.357Z,73.26
2018-12-06T04:04:32.551Z,73.20
2018-12-06T04:06:58.656Z,73.32
2018-12-06T04:09:24.766Z,73.17
2018-12-06T04:11:50.869Z,73.35
2018-12-06T04:14:16.976Z,73.43
2018-12-06T04:16:43.022Z,73.28
2018-12-06T04:19:09.213Z,73.21
2018-12-06T04:21:35.269Z,73.29
2018-12-06T04:24:01.333Z,73.11
2018-12-06T04:26:27.463Z,73.16
2018-12-06T04:28:53.574Z,73.14
2018-12-06T04:31:19.681Z,73.17
2018-12-06T04:33:45.829Z,73.22
2018-12-06T04:36:11.954Z,73.12
2018-12-06T04:38:38.000Z,73.39
2018-12-06T04:41:04.156Z,73.20
2018-12-06T04:43:30.268Z,73.06
2018-12-06T04:45:56.430Z,73.24
2018-12-06T04:48:22.639Z,73.40
2018-12-06T04:50:48.742Z,73.27
2018-12-06T04:53:14.831Z,73.18
2018-12-06T04:55:40.958Z,73.05
2018-12-06T04:58:07.067Z,73.20
2018-12-06T05:00:33.205Z,73.19
2018-12-06T05:02:59.337Z,73.16
2018-12-06T05:05:25.434Z,73.20
2018-12-06T05:07:51.651Z,73.20
2018-12-06T05:10:17.905Z,73.18
2018-12-06T05:12:43.990Z,72.96
2018-12-06T05:15:10.151Z,73.27
2018-12-06T05:17:36.245Z,73.33
2018-12-06T05:20:02.561Z,73.20
2018-12-06T05:22:28.706Z,73.03
2018-12-06T05:24:54.845Z,73.23
2018-12-06T05:27:20.915Z,73.08
2018-12-06T05:29:46.990Z,73.14
2018-12-06T05:32:13.044Z,73.12
2018-12-06T05:34:39.187Z,73.19
2018-12-06T05:37:05.368Z,73.05
2018-12-06T05:39:31.501Z,73.06
2018-12-06T05:41:57.648Z,73.29
2018-12-06T05:44:23.798Z,73.13
2018-12-06T05:46:49.894Z,73.10
2018-12-06T05:49:16.346Z,73.02
2018-12-06T05:51:42.550Z,73.13
2018-12-06T05:54:08.645Z,73.09
2018-12-06T05:56:34.662Z,73.24
2018-12-06T05:59:00.715Z,73.25
2018-12-06T06:01:26.781Z,73.02
2018-12-06T06:03:52.899Z,73.13
2018-12-06T06:06:18.964Z,73.14
2018-12-06T06:08:51.940Z,73.04
2018-12-06T06:11:18.057Z,73.09
2018-12-06T06:13:44.189Z,73.22
2018-12-06T06:16:10.255Z,73.19
2018-12-06T06:18:36.359Z,73.03
2018-12-06T06:21:02.456Z,73.09
2018-12-06T06:23:28.590Z,73.06
2018-12-06T06:25:54.693Z,73.09
2018-12-06T06:28:20.840Z,73.16
2018-12-06T06:30:46.907Z,72.98
2018-12-06T06:33:12.945Z,73.11
2018-12-06T06:35:39.020Z,73.00
2018-12-06T06:38:05.093Z,73.11
2018-12-06T06:40:31.352Z,73.19
2018-12-06T06:42:57.519Z,73.26
2018-12-06T06:45:23.617Z,73.04
2018-12-06T06:47:56.552Z,73.25
2018-12-06T06:50:22.862Z,73.14
2018-12-06T06:52:50.411Z,72.99
2018-12-06T06:55:16.741Z,73.35
2018-12-06T06:57:42.958Z,73.37
2018-12-06T07:00:09.281Z,73.09
2018-12-06T07:02:35.446Z,73.17
2018-12-06T07:05:01.550Z,73.24
2018-12-06T07:07:28.214Z,73.15
2018-12-06T07:09:54.367Z,73.07
2018-12-06T07:12:20.495Z,73.32
2018-12-06T07:14:46.653Z,73.05
2018-12-06T07:17:12.725Z,73.11
2018-12-06T07:19:38.825Z,73.02
2018-12-06T07:22:04.967Z,73.03
2018-12-06T07:24:31.100Z,73.26
2018-12-06T07:26:57.232Z,73.18
2018-12-06T07:29:23.459Z,73.30
2018-12-06T07:31:49.614Z,73.07
2018-12-06T07:34:15.654Z,73.26
2018-12-06T07:36:41.779Z,73.29
2018-12-06T07:39:08.073Z,73.32
2018-12-06T07:41:34.228Z,73.18
2018-12-06T07:44:00.346Z,73.25
2018-12-06T07:46:26.439Z,73.61
2018-12-06T07:52:26.727Z,73.67
2018-12-06T07:54:52.843Z,73.55
2018-12-06T07:57:18.960Z,73.50
2018-12-06T07:59:45.071Z,73.69
2018-12-06T08:02:11.188Z,73.61
2018-12-06T08:04:37.276Z,73.63
2018-12-06T08:07:03.549Z,73.54
2018-12-06T08:09:29.689Z,73.61
2018-12-06T08:11:55.747Z,73.66
2018-12-06T08:14:21.835Z,73.44
2018-12-06T08:16:47.940Z,73.66
2018-12-06T08:19:14.125Z,73.69
2018-12-06T08:21:40.297Z,73.65
2018-12-06T08:24:06.354Z,73.54
2018-12-06T08:26:32.437Z,73.49
2018-12-06T08:28:58.591Z,73.58
2018-12-06T08:31:24.724Z,73.69
2018-12-06T08:33:50.785Z,73.84
2018-12-06T08:36:16.924Z,73.63
2018-12-06T08:38:43.001Z,73.77
2018-12-06T08:41:09.090Z,73.86
2018-12-06T08:43:35.193Z,73.81
2018-12-06T08:46:01.269Z,73.91
2018-12-06T08:48:27.331Z,73.96
2018-12-06T08:50:53.397Z,74.17
2018-12-06T08:53:19.688Z,74.10
2018-12-06T08:55:45.792Z,73.98
2018-12-06T08:58:11.899Z,74.12
2018-12-06T09:00:37.990Z,74.00
2018-12-06T09:05:56.754Z,73.88
2018-12-06T09:08:22.920Z,73.82
2018-12-06T09:10:51.663Z,73.72
2018-12-06T09:13:17.083Z,73.77
2018-12-06T09:15:43.174Z,73.72
2018-12-06T09:18:09.288Z,73.72
2018-12-06T09:20:35.472Z,73.91
2018-12-06T09:23:01.563Z,73.85
2018-12-06T09:25:27.659Z,73.83
2018-12-06T09:27:53.722Z,73.76
2018-12-06T09:30:19.821Z,73.81
2018-12-06T09:32:45.868Z,73.76
2018-12-06T09:35:12.062Z,73.72
2018-12-06T09:37:38.136Z,73.73
2018-12-06T09:40:04.477Z,73.79
2018-12-06T09:42:30.603Z,73.64
2018-12-06T09:44:56.632Z,73.73
2018-12-06T09:47:22.841Z,73.68
2018-12-06T09:49:48.951Z,73.48
2018-12-06T09:52:15.038Z,73.46
2018-12-06T09:54:43.114Z,73.60
2018-12-06T09:57:09.464Z,73.65
2018-12-06T09:59:35.572Z,73.78
2018-12-06T10:02:01.716Z,73.80
2018-12-06T10:04:27.806Z,73.85
2018-12-06T10:06:53.879Z,73.86
2018-12-06T10:09:19.999Z,73.87
2018-12-06T10:11:46.113Z,73.83
2018-12-06T10:14:12.182Z,73.75
2018-12-06T10:16:38.336Z,73.92
2018-12-06T10:19:04.503Z,73.85
2018-12-06T10:21:30.538Z,73.75
2018-12-06T10:23:56.668Z,73.73
2018-12-06T10:26:22.806Z,73.79
2018-12-06T10:28:48.871Z,73.74
2018-12-06T10:31:14.969Z,73.78
2018-12-06T10:33:41.047Z,73.71
2018-12-06T10:36:07.126Z,73.78
2018-12-06T10:38:33.255Z,73.71
2018-12-06T10:40:59.372Z,73.75
2018-12-06T10:43:25.438Z,73.85
2018-12-06T10:45:51.474Z,73.89
2018-12-06T10:48:17.550Z,73.88
2018-12-06T10:50:43.636Z,73.72
2018-12-06T10:53:09.830Z,73.77
2018-12-06T10:55:36.145Z,73.89
2018-12-06T10:58:03.057Z,73.72
2018-12-06T11:00:35.157Z,73.91
2018-12-06T11:03:07.124Z,73.74
2018-12-06T11:05:33.206Z,73.72
2018-12-06T11:07:59.287Z,73.87
2018-12-06T11:10:25.433Z,73.69
2018-12-06T11:12:51.592Z,73.75
2018-12-06T11:15:17.738Z,73.60
2018-12-06T11:17:43.833Z,73.79
2018-12-06T11:20:09.920Z,73.84
2018-12-06T11:22:36.018Z,73.84
2018-12-06T11:25:02.403Z,73.88
2018-12-06T11:27:28.504Z,73.82
2018-12-06T11:29:54.577Z,73.89
2018-12-06T11:32:20.667Z,73.84
2018-12-06T11:37:24.852Z,73.92
2018-12-06T11:39:50.909Z,73.80
2018-12-06T11:42:17.062Z,73.80
2018-12-06T11:44:43.204Z,73.79
2018-12-06T11:47:09.277Z,73.67
2018-12-06T11:49:35.345Z,73.70
2018-12-06T11:52:01.386Z,73.80
2018-12-06T11:54:27.457Z,73.62
2018-12-06T11:56:53.793Z,73.69
2018-12-06T11:59:19.856Z,73.80
2018-12-06T12:01:45.897Z,73.73
2018-12-06T12:04:11.953Z,73.81
2018-12-06T12:06:38.032Z,73.55
2018-12-06T12:09:05.471Z,73.68
2018-12-06T12:11:31.564Z,73.80
2018-12-06T12:13:57.587Z,73.58
2018-12-06T12:16:23.620Z,73.81
2018-12-06T12:18:49.654Z,73.92
2018-12-06T12:21:15.786Z,73.70
2018-12-06T12:23:41.896Z,73.79
2018-12-06T12:26:07.963Z,73.53
2018-12-06T12:28:34.057Z,73.69
2018-12-06T12:31:00.148Z,73.70
2018-12-06T12:33:26.248Z,73.77
2018-12-06T12:35:52.348Z,73.76
2018-12-06T12:38:18.409Z,73.71
2018-12-06T12:40:44.509Z,73.92
2018-12-06T12:43:10.598Z,73.96
2018-12-06T12:45:36.663Z,73.70
2018-12-06T12:48:02.805Z,73.68
2018-12-06T12:50:28.842Z,73.67
2018-12-06T12:52:54.979Z,73.70
2018-12-06T12:55:21.079Z,73.79
2018-12-06T12:57:47.293Z,73.59
2018-12-06T13:00:13.484Z,73.75
2018-12-06T13:02:39.533Z,73.67
2018-12-06T13:05:05.770Z,73.87
2018-12-06T13:07:31.852Z,73.82
2018-12-06T13:09:57.970Z,73.66
2018-12-06T13:12:24.055Z,73.81
2018-12-06T13:14:50.096Z,73.67
2018-12-06T13:17:16.197Z,73.91
2018-12-06T13:19:42.253Z,73.76
2018-12-06T13:22:08.331Z,73.58
2018-12-06T13:24:34.580Z,73.65
2018-12-06T13:27:00.711Z,73.69
2018-12-06T13:29:26.924Z,73.75
2018-12-06T13:31:53.093Z,73.76
2018-12-06T13:34:19.156Z,73.70
2018-12-06T13:36:45.310Z,73.63
2018-12-06T13:39:11.379Z,73.61
2018-12-06T13:41:37.590Z,73.49
2018-12-06T13:44:03.725Z,73.74
2018-12-06T13:46:29.808Z,73.79
2018-12-06T13:48:55.863Z,73.64
2018-12-06T13:51:21.930Z,73.69
2018-12-06T13:53:48.022Z,73.60
2018-12-06T13:56:14.115Z,73.54
2018-12-06T13:58:40.453Z,73.49
2018-12-06T14:01:06.710Z,73.58
2018-12-06T14:03:33.036Z,73.53
2018-12-06T14:05:59.109Z,73.75
2018-12-06T14:08:25.178Z,73.64
2018-12-06T14:10:51.224Z,73.57
2018-12-06T14:13:23.622Z,73.66
2018-12-06T14:15:45.557Z,73.59
2018-12-06T14:18:11.626Z,73.73
2018-12-06T14:20:37.653Z,73.65
2018-12-06T14:23:03.748Z,73.63
2018-12-06T14:25:29.807Z,73.57
2018-12-06T14:27:55.890Z,73.49
2018-12-06T14:30:21.953Z,73.61
2018-12-06T14:32:48.011Z,73.56
2018-12-06T14:35:14.088Z,73.45
2018-12-06T14:37:40.215Z,73.53
2018-12-06T14:40:06.368Z,73.48
2018-12-06T14:42:32.476Z,73.41
2018-12-06T14:44:58.559Z,73.52
2018-12-06T14:47:24.610Z,73.49
2018-12-06T14:49:50.976Z,73.54
2018-12-06T14:52:17.004Z,73.44
2018-12-06T14:54:43.106Z,73.44
2018-12-06T14:57:09.149Z,73.51
2018-12-06T14:59:35.569Z,73.54
2018-12-06T15:02:01.663Z,73.44
2018-12-06T15:04:27.753Z,73.40
2018-12-06T15:06:53.825Z,73.40
2018-12-06T15:09:19.940Z,73.39
2018-12-06T15:11:46.121Z,73.40
2018-12-06T15:14:12.229Z,73.66
2018-12-06T15:16:38.346Z,73.30
2018-12-06T15:19:04.567Z,73.40
2018-12-06T15:21:30.679Z,73.55
2018-12-06T15:23:56.763Z,73.58
2018-12-06T15:26:22.845Z,73.28
2018-12-06T15:28:48.888Z,73.52
2018-12-06T15:31:15.062Z,73.49
2018-12-06T15:33:41.138Z,73.54
2018-12-06T15:36:07.211Z,73.36
2018-12-06T15:38:33.251Z,73.51
2018-12-06T15:40:59.462Z,73.37
2018-12-06T15:43:25.531Z,73.46
2018-12-06T15:45:51.709Z,73.56
2018-12-06T15:48:17.822Z,73.53
2018-12-06T15:50:43.962Z,73.55
2018-12-06T15:53:10.037Z,73.39
2018-12-06T15:55:36.109Z,73.45
2018-12-06T15:58:02.197Z,73.28
2018-12-06T16:00:28.533Z,73.44
2018-12-06T16:02:54.637Z,73.31
2018-12-06T16:05:20.637Z,73.43
2018-12-06T16:07:46.694Z,73.34
2018-12-06T16:10:12.855Z,73.42
2018-12-06T16:12:38.984Z,73.45
2018-12-06T16:15:05.826Z,73.49
2018-12-06T16:17:31.847Z,73.48
2018-12-06T16:19:58.001Z,73.44
2018-12-06T16:22:24.055Z,73.42
2018-12-06T16:24:50.176Z,73.43
2018-12-06T16:27:16.372Z,73.42
2018-12-06T16:29:51.222Z,73.45
2018-12-06T16:32:10.526Z,73.78
2018-12-06T16:34:36.590Z,73.78
2018-12-06T16:37:02.680Z,73.71
2018-12-06T16:39:28.761Z,73.43
2018-12-06T16:41:54.879Z,73.40
2018-12-06T16:44:20.939Z,73.55
2018-12-06T16:46:47.012Z,73.37
2018-12-06T16:49:13.070Z,73.59
2018-12-06T16:51:39.100Z,73.36
2018-12-06T16:54:05.190Z,73.40
2018-12-06T16:56:31.216Z,73.66
2018-12-06T16:58:57.333Z,73.50
2018-12-06T17:01:23.435Z,73.67
2018-12-06T17:03:49.487Z,73.44
2018-12-06T17:06:22.304Z,73.61
2018-12-06T17:08:48.349Z,73.47
2018-12-06T17:11:14.543Z,73.70
2018-12-06T17:13:40.712Z,73.58
2018-12-06T17:16:06.793Z,73.60
2018-12-06T17:18:32.829Z,73.40
2018-12-06T17:20:59.027Z,73.60
2018-12-06T17:23:25.167Z,73.58
2018-12-06T17:25:51.233Z,73.49
2018-12-06T17:28:17.326Z,73.29
2018-12-06T17:30:43.411Z,73.60
2018-12-06T17:33:09.496Z,73.37
2018-12-06T17:35:35.583Z,73.47
2018-12-06T17:38:01.652Z,73.54
2018-12-06T17:40:27.748Z,73.47
2018-12-06T17:42:53.827Z,73.48
2018-12-06T17:45:19.939Z,73.51
2018-12-06T17:47:46.015Z,73.45
2018-12-06T17:50:12.213Z,73.49
2018-12-06T17:52:38.315Z,73.39
2018-12-06T17:55:04.817Z,73.53
2018-12-06T17:57:30.968Z,73.56
2018-12-06T17:59:57.062Z,73.59
2018-12-06T18:02:23.267Z,73.46
2018-12-06T18:04:49.352Z,73.59
2018-12-06T18:07:15.353Z,73.52
2018-12-06T18:09:41.572Z,73.61
2018-12-06T18:12:07.650Z,73.60
2018-12-06T18:14:33.807Z,73.46
2018-12-06T18:16:59.876Z,73.41
2018-12-06T18:19:25.925Z,73.35
2018-12-06T18:21:52.028Z,73.43
2018-12-06T18:24:18.790Z,73.38
2018-12-06T18:26:45.175Z,73.58
2018-12-06T18:29:11.272Z,73.55
2018-12-06T18:31:37.301Z,73.40
2018-12-06T18:34:03.373Z,73.40
2018-12-06T18:36:29.754Z,73.34
2018-12-06T18:38:55.813Z,73.46
2018-12-06T18:41:21.902Z,73.73
2018-12-06T18:43:48.058Z,73.80
2018-12-06T18:46:14.119Z,73.89
2018-12-06T18:48:40.233Z,73.90
2018-12-06T18:51:06.323Z,73.85
2018-12-06T18:53:32.504Z,73.76
2018-12-06T18:55:58.698Z,73.93
2018-12-06T18:58:24.809Z,73.90
2018-12-06T19:00:51.003Z,73.98
2018-12-06T19:03:17.265Z,74.13
2018-12-06T19:05:43.323Z,74.20
2018-12-06T19:08:09.471Z,74.22
2018-12-06T19:10:35.589Z,74.20
2018-12-06T19:13:01.693Z,74.20
2018-12-06T19:15:27.843Z,74.31
2018-12-06T19:17:53.904Z,74.50
2018-12-06T19:20:20.146Z,74.44
2018-12-06T19:22:46.226Z,74.20
2018-12-06T19:25:12.357Z,74.26
2018-12-06T19:27:38.467Z,73.97
2018-12-06T19:30:06.990Z,73.82
2018-12-06T19:32:33.089Z,73.85
2018-12-06T19:34:59.315Z,74.10
2018-12-06T19:37:25.405Z,73.95
2018-12-06T19:39:51.465Z,73.92
2018-12-06T19:42:17.527Z,74.04
2018-12-06T19:44:43.619Z,74.35
2018-12-06T19:47:09.707Z,74.37
2018-12-06T19:49:35.823Z,74.35
2018-12-06T19:54:57.692Z,74.41
2018-12-06T19:57:23.797Z,74.27
2018-12-06T19:59:49.929Z,74.44
2018-12-06T20:02:16.076Z,74.19
2018-12-06T20:04:42.464Z,74.20
2018-12-06T20:07:08.532Z,74.36
2018-12-06T20:09:34.645Z,74.14
2018-12-06T20:12:00.753Z,74.50
2018-12-06T20:14:26.832Z,74.36
2018-12-06T20:16:52.922Z,74.10
2018-12-06T20:19:19.007Z,74.49
2018-12-06T20:21:45.079Z,74.34
2018-12-06T20:24:11.236Z,74.18
2018-12-06T20:26:37.295Z,74.34
2018-12-06T20:29:03.494Z,74.49
2018-12-06T20:31:29.532Z,74.53
2018-12-06T20:33:55.658Z,74.53
2018-12-06T20:36:21.780Z,74.51
2018-12-06T20:38:47.916Z,74.45
2018-12-06T20:41:14.129Z,74.46
2018-12-06T20:43:40.204Z,74.44
2018-12-06T20:46:06.301Z,74.25
2018-12-06T20:48:32.408Z,74.06
2018-12-06T20:50:58.510Z,74.06
2018-12-06T20:53:24.723Z,73.91
2018-12-06T20:55:50.788Z,73.92
2018-12-06T20:58:16.909Z,73.85
2018-12-06T21:00:42.996Z,73.87
2018-12-06T21:03:09.200Z,73.77
2018-12-06T21:05:35.573Z,73.84
2018-12-06T21:08:01.640Z,73.80
2018-12-06T21:10:27.714Z,73.57
2018-12-06T21:12:53.812Z,73.63
2018-12-06T21:15:19.959Z,73.82
2018-12-06T21:17:46.162Z,73.78
2018-12-06T21:20:12.443Z,73.73
2018-12-06T21:22:38.540Z,73.81
2018-12-06T21:25:04.868Z,73.70
2018-12-06T21:27:30.918Z,73.58
2018-12-06T21:29:57.012Z,73.64
2018-12-06T21:35:03.897Z,73.87
2018-12-06T21:37:29.966Z,73.91
2018-12-06T21:39:56.055Z,73.68
2018-12-06T21:42:22.080Z,73.47
2018-12-06T21:44:48.162Z,73.49
2018-12-06T21:47:16.262Z,73.59
2018-12-06T21:49:42.353Z,73.60
2018-12-06T21:52:08.454Z,73.78
2018-12-06T21:54:34.547Z,73.76
2018-12-06T21:57:00.639Z,73.73
2018-12-06T21:59:26.753Z,73.65
2018-12-06T22:01:58.646Z,73.95
2018-12-06T22:04:24.743Z,73.57
2018-12-06T22:06:50.907Z,73.55
2018-12-06T22:09:16.955Z,73.49
2018-12-06T22:11:42.996Z,73.43
2018-12-06T22:14:09.009Z,73.41
2018-12-06T22:16:35.084Z,73.41
2018-12-06T22:19:01.137Z,73.26
2018-12-06T22:21:27.227Z,73.42
2018-12-06T22:23:53.304Z,73.47
2018-12-06T22:26:19.369Z,73.70
2018-12-06T22:28:45.478Z,73.42
2018-12-06T22:31:11.606Z,73.72
2018-12-06T22:33:37.717Z,73.72
2018-12-06T22:36:03.882Z,73.55
2018-12-06T22:41:41.192Z,73.76
2018-12-06T22:44:07.308Z,73.78
2018-12-06T22:46:33.828Z,73.77
2018-12-06T22:48:59.932Z,73.75
2018-12-06T22:54:18.653Z,73.65
2018-12-06T22:56:44.880Z,73.95
2018-12-06T22:59:11.031Z,73.82
2018-12-06T23:01:39.240Z,73.89
2018-12-06T23:04:05.448Z,73.76
2018-12-06T23:06:31.489Z,73.66
2018-12-06T23:08:57.768Z,73.71
2018-12-06T23:11:23.878Z,73.81
2018-12-06T23:13:50.016Z,73.69
2018-12-06T23:16:16.179Z,73.66
2018-12-06T23:18:42.437Z,73.71
2018-12-06T23:21:08.679Z,73.69
2018-12-06T23:23:34.817Z,73.56
2018-12-06T23:26:00.964Z,73.59
2018-12-06T23:28:27.059Z,73.37
2018-12-06T23:30:53.306Z,73.36
2018-12-06T23:33:19.418Z,73.42
2018-12-06T23:35:45.593Z,73.32
2018-12-06T23:38:11.920Z,73.44
2018-12-06T23:43:30.776Z,73.39
2018-12-06T23:45:56.992Z,73.47
2018-12-06T23:51:32.214Z,73.27
2018-12-06T23:53:58.750Z,73.51
2018-12-06T23:56:24.943Z,73.35
2018-12-06T23:58:51.144Z,73.32
